Nearby METAR Reports

 

KBJC - Broomfield/Jeffc, Colorado, USA
Distance from station: SSW 3mi, 5km
Updated: Wed, 23-Aug-2017 8:46am MDT
Mostly cloudy
Mostly cloudy
 Wind from ESE
Wind: ESE 3 mph , 6 km/h
Temperature: 70°F , 21°C
Dew Point: 55°F , 13°C
Humidity: 60%
Barometer: 30.22 inHg , 1023.4 hPa
Clouds: Mostly cloudy
Visibility: 10 miles , 16 km
Cloud details: Partly cloudy 12000 ft
Mostly cloudy 20000 ft
2017/08/23 14:46 KBJC 231446Z 11003KT 10SM SCT120 BKN200 21/13 A3022
KEIK - Erie Muni, Colorado, USA
Distance from station: N 5mi, 9km
Updated: Wed, 23-Aug-2017 9:16am MDT
Clear
Clear
 Wind from calm
Wind: Calm
Temperature: 72°F , 22°C
Dew Point: 54°F , 12°C
Humidity: 53%
Barometer: 30.24 inHg , 1024 hPa
Clouds: Clear
Visibility: 10 miles , 16 km
2017/08/23 15:16 KEIK 231516Z AUTO 00000KT 10SM CLR 22/12 A3024 RMK AO2 T02220118
 
KBDU - Boulder Muni, Colorado, USA
Distance from station: NW 11mi, 17km
Updated: Wed, 23-Aug-2017 9:16am MDT
Mostly cloudy
Mostly cloudy
 Wind from calm
Wind: Calm
Temperature: 70°F , 21°C
Dew Point: 52°F , 11°C
Humidity: 53%
Barometer: 30.20 inHg , 1022.7 hPa
Clouds: Mostly cloudy
Visibility: 10 miles , 16 km
Cloud details: Mostly cloudy 12000 ft
2017/08/23 15:16 KBDU 231516Z AUTO 00000KT 10SM BKN120 21/11 A3020 RMK AO2
KLMO - Longmont/Vbrand, Colorado, USA
Distance from station: NNW 16mi, 27km
Updated: Wed, 23-Aug-2017 9:15am MDT
Clear
Clear
 Wind from S
Wind: S 3 mph , 6 km/h
Temperature: 73°F , 23°C
Dew Point: 54°F , 12°C
Humidity: 50%
Barometer: 30.20 inHg , 1022.7 hPa
Clouds: Clear
Visibility: 7 miles , 11 km
2017/08/23 15:15 KLMO 231515Z AUTO 17003KT 7SM CLR 23/12 A3020 RMK AO2 T02300124
 
KBKF - Buckley Angb/Den, Colorado, USA
Distance from station: SE 23mi, 37km
Updated: Wed, 23-Aug-2017 8:58am MDT
Mostly cloudy
Mostly cloudy
 Wind from SW
Wind: SW 6 mph , 9 km/h
Temperature: 68°F , 20°C
Dew Point: 48°F , 9°C
Humidity: 49%
Barometer: 30.23 inHg , 1023.7 hPa
Clouds: Mostly cloudy
Visibility: 10 miles , 16 km
Cloud details: Mostly cloudy 15000 ft
Mostly cloudy 22000 ft
2017/08/23 14:58 KBKF 231458Z 23005KT 10SM BKN150 BKN220 20/09 A3023 RMK AO2A SLP164 T02040090 52008
KDEN - Denver (dia), Colorado, USA
Distance from station: ESE 23mi, 37km
Updated: Wed, 23-Aug-2017 8:53am MDT
Mostly cloudy
Mostly cloudy
 Wind from WSW
Wind: WSW 10 mph , 17 km/h
Temperature: 72°F , 22°C
Dew Point: 46°F , 8°C
Humidity: 41%
Barometer: 30.20 inHg , 1022.7 hPa
Clouds: Mostly cloudy
Visibility: 10 miles , 16 km
Cloud details: Partly cloudy 12000 ft
Mostly cloudy 18000 ft
2017/08/23 14:53 KDEN 231453Z 25009KT 10SM SCT120 BKN180 22/08 A3020 RMK AO2 SLP148 T02220083 51007
 
KAPA - Denver/Arapahoe, Colorado, USA
Distance from station: SSE 28mi, 46km
Updated: Wed, 23-Aug-2017 8:53am MDT
Mostly cloudy
Mostly cloudy
 Wind from WSW
Wind: WSW 5 mph , 7 km/h
Temperature: 72°F , 22°C
Dew Point: 45°F , 7°C
Humidity: 38%
Barometer: 30.24 inHg , 1024 hPa
Clouds: Mostly cloudy
Visibility: 10 miles , 16 km
Cloud details: Mostly cloudy 14000 ft
Mostly cloudy 22000 ft
2017/08/23 14:53 KAPA 231453Z 25004KT 10SM BKN140 BKN220 22/07 A3024 RMK AO2 SLP168 T02170067 51006
KFTG - Denver F. Range, Colorado, USA
Distance from station: ESE 30mi, 48km
Updated: Wed, 23-Aug-2017 9:14am MDT
Clear
Clear
 Wind from W
Wind: W 6 mph , 9 km/h
Temperature: 73°F , 23°C
Dew Point: 50°F , 10°C
Humidity: 44%
Barometer: 30.21 inHg , 1023 hPa
Clouds: Clear
Visibility: 10 miles , 16 km
2017/08/23 15:14 KFTG 231514Z AUTO 27005KT 10SM CLR 23/10 A3021 RMK AO2
 
KFNL - Ft Collins/Lovel, Colorado, USA
Distance from station: N 35mi, 57km
Updated: Wed, 23-Aug-2017 8:56am MDT
Clear
Clear
 Wind from NNE
Wind: NNE 3 mph , 6 km/h
Temperature: 70°F , 21°C
Dew Point: 57°F , 14°C
Humidity: 64%
Barometer: 30.19 inHg , 1022.4 hPa
Clouds: Clear
Visibility: 10 miles , 16 km
2017/08/23 14:56 KFNL 231456Z AUTO 03003KT 10SM CLR 21/14 A3019 RMK AO2 SLP163 6//// T02060139 50003 PNO $
K0CO - Berthoud Pass, Colorado, USA
Distance from station: WSW 38mi, 61km
Updated: Wed, 23-Aug-2017 9:20am MDT
Overcast
Overcast
 Wind from NW
Wind: NW 7 mph , 11 km/h
Temperature: 45°F , 7°C
Wind Chill: 41°F , 5°C
Dew Point: 39°F , 4°C
Humidity: 81%
Barometer: 30.73 inHg , 1040.6 hPa
Clouds: Overcast
Visibility: 10 miles , 16 km
Cloud details: Partly cloudy 6000 ft
Overcast 11000 ft
2017/08/23 15:20 K0CO 231520Z AUTO 32006KT 10SM SCT060 OVC110 07/04 A3073 RMK AO2
 
KGXY - Greeley/Weld, Colorado, USA
Distance from station: NE 41mi, 66km
Updated: Wed, 23-Aug-2017 7:56am MDT
NOT Current
Clear
Clear
 Wind from WNW
Wind: WNW 6 mph , 9 km/h
Temperature: 59°F , 15°C
Dew Point: 55°F , 13°C
Humidity: 88%
Barometer: 30.18 inHg , 1022 hPa
Clouds: Clear
Visibility: 10 miles , 16 km
2017/08/23 13:56 KGXY 231356Z AUTO 29005KT 10SM CLR 15/13 A3018 RMK AO2 SLP191 T01500128